Tiempo atmosférico en la estación meteorológica de Bilbao Aeropuerto, Bizkaia (42 m.)



Fecha
DESCASC
Temp. máxima en grados centígrados (hora)
DESCASC
Temp. mínima en grados centígrados (hora)
DESCASC
Temp. media en grados centígrados
DESCASC
Racha de viento máxima en m/sg (hora)
DESCASC
Velocidad máxima media en intervalos de 10 minutos(hora)
DESCASC
Precipitaciones diarias en mm
DESCASC
Precipitaciones de 00:00 a 06:00 en mm
DESCASC
Precipitaciones de 06:00 a 12:00 en mm
DESCASC
Precipitaciones de 12:00 a 18:00 en mm
DESCASC
Precipitaciones de 18:00 a 24:00 en mm
DESCASC
05-12-2019 13.6 (14:30) 6.3 (23:59) 10 6.11 (01:00) 3.61 (15:30) 0 0 0 0 0
04-12-2019 12 (16:00) 1.6 (06:30) 6.8 8.89 (16:00) 6.11 (16:10) 0 0 0 0 0
03-12-2019 10.1 (14:30) 2.4 (00:00) 6.3 7.78 (12:40) 3.61 (00:30) 0.8 0.8 0 0 0
02-12-2019 10.7 (12:20) 7.9 (00:00) 9.3 9.72 (11:10) 5.83 (11:50) 7.9 4.9 3 0 0
01-12-2019 16.1 (13:20) 6.1 (00:00) 11.1 8.89 (19:20) 6.11 (19:20) 14 0 0 0 14
30-11-2019 19.4 (10:00) 6.6 (00:00) 13 15.28 (10:40) 11.11 (10:40) 14.3 0 3.1 11.2 0
29-11-2019 18.6 (14:20) 8.8 (00:00) 13.7 5.83 (17:10) 3.61 (22:40) 0.7 0.7 0 0 0
28-11-2019 13.6 (14:00) 7.8 (00:00) 10.7 5.83 (19:10) 3.89 (19:10) 6 0.1 0 5.8 0.1
27-11-2019 17.1 (14:10) 10.6 (00:00) 13.9 12.78 (12:50) 7.22 (13:40) 2.1 0 0 2.1 0
26-11-2019 21.4 (17:20) 11 (00:00) 16.2 18.06 (20:50) 10.28 (21:20) 0.1 0 0 0 0.1
25-11-2019 18.1 (12:20) 10.1 (00:00) 14.1 7.78 (05:50) 5 (13:20) 0 0 0 0 0
24-11-2019 14.6 (14:50) 9.5 (00:00) 12.1 9.72 (21:00) 5.28 (21:00) 6 4.1 0.5 0 1.4
23-11-2019 16.3 (00:10) 9.6 (00:00) 12.9 23.61 (07:00) 15 (10:20) 31 5.5 18.8 5.2 1.5
22-11-2019 -- (--) -- (--) -- -- (--) -- (--) -- -- -- 0.1 0
21-11-2019 -- (--) -- (--) -- -- (--) -- (--) -- 0 0 0 --
20-11-2019 14.7 (13:00) 6.2 (00:00) 10.4 12.78 (12:50) 7.78 (21:30) 0 0 0 0 0
19-11-2019 14.3 (14:20) 3.7 (00:00) 9 7.78 (15:20) 4.17 (15:50) 0 0 0 0 0
18-11-2019 12.1 (15:50) 7.3 (00:00) 9.7 -- (--) -- (--) 8.8 4.3 4.3 0.1 0.1
17-11-2019 12.3 (15:50) 7.2 (00:00) 9.8 13.89 (16:50) 5.83 (17:00) 17.2 1.5 2.5 4.6 8.6
16-11-2019 10.1 (15:10) 1.5 (00:00) 5.8 13.33 (15:10) 6.67 (15:20) 21 0 10.3 7 3.7
15-11-2019 11 (12:40) 3.7 (00:00) 7.4 16.94 (09:20) 11.67 (09:10) 11.3 1.3 7.5 2 0.5
14-11-2019 13 (14:20) 4.6 (00:00) 8.8 11.67 (03:00) 7.78 (00:10) 16.9 13 0 3.9 0
13-11-2019 13.7 (12:30) 9.6 (00:00) 11.7 12.78 (23:59) 7.78 (23:59) 7.5 5.7 1 0.3 0.5
12-11-2019 14.4 (15:00) 7.6 (00:00) 11 7.22 (12:20) 4.17 (14:00) 13.6 5.1 5.8 0 2.7
11-11-2019 13.4 (13:40) 6.4 (01:10) 9.9 14.44 (12:20) 8.89 (12:30) 10.2 3 4.6 0.6 2
10-11-2019 13.3 (14:00) 7 (00:00) 10.2 16.39 (10:00) 8.33 (13:20) 34.7 10.5 9.8 9.8 4.6
09-11-2019 14.4 (16:10) 9.1 (00:00) 11.8 17.5 (16:00) 10.56 (16:00) 27.5 6.4 2.3 4.3 14.5
08-11-2019 12.5 (14:10) 7.8 (00:00) 10.2 21.67 (13:00) 13.33 (17:00) 47.5 2.6 3.4 19.3 22.2

Gráficas

Temp. máximas Temp. mínimas Temp. medias Precipitaciones Rachas de viento máximas Velocidades máximas media en intervalos de 10 minutos

Datos horarios

Fecha y hora oficial Temperatura (ºC) Velocidad del viento (km/h) Dirección del viento Racha (km/h) Dirección de racha Precipitación (mm) Presión (hPa) Tendencia (hPa) Humedad (%)
2019-12-07 23:00:00 8.8 8 Este -- -- 0 1019.2 -0.1 94
2019-12-07 22:00:00 10.2 9 Sudeste 11 Sudeste 0 1019.1 -0.1 90
2019-12-07 21:00:00 10.7 2 Nordeste 11 Este 0 1019.4 0.7 91
2019-12-07 20:00:00 11.8 8 Este 11 Este 0 1019.3 1.1 86
2019-12-07 19:00:00 13.1 0 Calma 9 Este 0 1019.2 1.2 79
2019-12-07 18:00:00 13.8 5 Sudeste 9 Nordeste 0 1018.7 0.7 77
2019-12-07 17:00:00 15.7 0 Calma 5 Sur 0 1018.2 -0.4 68
2019-12-07 16:00:00 16.3 0 Calma 8 Sudeste 0 1018 -1.2 61
2019-12-07 15:00:00 16.3 0 Calma 8 Este 0 1018 -1.8 60
2019-12-07 14:00:00 15.4 3 Nordeste 9 Este 0 1018.6 -1.8 64
2019-12-07 13:00:00 14 5 Este 15 Este 0 1019.2 -0.9 71
2019-12-07 12:00:00 11.8 10 Este 13 Este 0 1019.8 -0.2 81
2019-12-07 11:00:00 8.7 4 Este 13 Nordeste 0 1020.4 0.9 91
2019-12-07 10:00:00 7.3 6 Este 13 Nordeste 0 1020.1 1 96
2019-12-07 09:00:00 5.5 7 Este 11 Este 0 1020 1.4 97
2019-12-07 08:00:00 5 7 Este 13 Nordeste 0 1019.5 0.9 96
2019-12-07 07:00:00 4.7 9 Este 11 Este 0 1019.1 0.5 97
2019-12-07 06:00:00 5 7 Este 13 Este 0 1018.6 -0.1 97
2019-12-07 05:00:00 5.8 7 Este 9 Este 0 1018.6 -0.6 96
2019-12-07 04:00:00 5.9 9 Nordeste 13 Este 0 1018.6 -0.9 97
2019-12-07 03:00:00 6.4 8 Este 13 Este 0 1018.7 -1.4 96
2019-12-07 02:00:00 7.2 7 Este 11 Este 0 1019.2 -0.3 95
2019-12-07 01:00:00 8.3 9 Nordeste 11 Nordeste 0 1019.5 0.4 93
2019-12-07 00:00:00 8.5 8 Este 13 Nordeste 0 1020.1 1.4 93
2019-12-06 23:00:00 8.2 7 Este 9 Este 0 1019.5 1.3 94
2019-12-06 22:00:00 8.4 5 Nordeste 11 Nordeste 0 1019.1 1.2 93
2019-12-06 21:00:00 8.6 6 Sudeste 9 Sudeste 0 1018.7 1.1 92
2019-12-06 20:00:00 9 7 Este 13 Este 0 1018.2 1 91
2019-12-06 19:00:00 9.4 5 Este 8 Este 0 1017.9 1.4 87
2019-12-06 18:00:00 11 0 Calma 15 Oeste 0 1017.6 1 81
2019-12-06 17:00:00 12 11 Oeste 24 Oeste 0 1017.2 0.1 77
2019-12-06 16:00:00 13.8 8 Oeste 15 Oeste 0 1016.5 -1.3 72
2019-12-06 15:00:00 14.1 11 Oeste 15 Oeste 0 1016.6 -2 71
2019-12-06 14:00:00 15.4 8 Oeste 13 Sudoeste 0 1017.1 -2.2 62
2019-12-06 13:00:00 15 6 Este 22 Nordeste 0 1017.8 -1.3 61
2019-12-06 12:00:00 12.3 5 Sudeste 11 Sudeste 0 1018.6 -0.1 74
2019-12-06 11:00:00 9.4 5 Sur 8 Sur 0 1019.3 0.4 82
2019-12-06 10:00:00 7.2 2 Este 22 Sudeste 0 1019.1 0.2 92
2019-12-06 09:00:00 5.2 18 Sudeste 24 Sudeste 0 1018.7 -0.3 97
2019-12-06 08:00:00 4.8 3 Sudeste 9 Sudeste 0 1018.9 -0.7 98
2019-12-06 07:00:00 4.6 7 Este 13 Este 0 1018.9 -0.7 99
2019-12-06 06:00:00 4.8 12 Este 15 Este 0 1019 -0.6 99
2019-12-06 05:00:00 5.3 2 Nordeste 11 Sudeste 0 1019.6 -0.3 98
2019-12-06 04:00:00 5.6 9 Este 13 Sudeste 0 1019.6 -0.4 98
2019-12-06 03:00:00 5.5 8 Este 9 Este 0 1019.6 -0.8 98
2019-12-06 02:00:00 5.6 7 Este 9 Este 0 1019.9 -0.5 98
2019-12-06 01:00:00 5.7 7 Este 13 Nordeste 0 1020 -0.5 97
2019-12-06 00:00:00 6.5 6 Este 11 Este 0 1020.4 -0.3 97
2019-12-05 23:00:00 7.1 8 Este 13 Este 0 1020.4 -0.4 97
2019-12-05 22:00:00 8 6 Este 11 Este 0 1020.5 0.2 96
2019-12-05 21:00:00 9 7 Este 13 Este 0 1020.7 1 95
2019-12-05 20:00:00 9.8 0 Calma 9 Norte 0 1020.8 1.7 91
2019-12-05 19:00:00 10.6 3 Noroeste 13 Norte 0 1020.3 1.5 89
2019-12-05 18:00:00 11.6 6 Norte 21 Norte 0 1019.7 0.8 83
2019-12-05 17:00:00 12.4 11 Noroeste 17 Norte 0 1019.1 0.2 83
2019-12-05 16:00:00 13.2 11 Norte 18 Norte 0 1018.8 -0.6 80
2019-12-05 15:00:00 13.5 9 Norte 18 Norte 0 1018.9 -0.6 81
2019-12-05 14:00:00 13.2 9 Oeste 17 Oeste 0 1018.9 -0.7 82
2019-12-05 13:00:00 13 10 Oeste 17 Oeste 0 1019.4 0.3 80
2019-12-05 12:00:00 11.5 3 Norte 9 Nordeste 0 1019.5 0.8 82
2019-12-05 11:00:00 9.6 7 Este 11 Este 0 1019.6 1.6 89
2019-12-05 10:00:00 8.6 0 Calma 11 Este 0 1019.1 1.6 91
2019-12-05 09:00:00 8.1 4 Sudeste 11 Nordeste 0 1018.7 2 92
2019-12-05 08:00:00 7.8 5 Este 11 Este 0 1018 1.5 93
2019-12-05 07:00:00 7.6 5 Este 9 Sudeste 0 1017.5 1.6 93
2019-12-05 06:00:00 8.4 4 Noroeste 11 Noroeste 0 1016.7 1.6 88
2019-12-05 05:00:00 8.6 9 Noroeste 17 Noroeste 0 1016.5 1.7 87
2019-12-05 04:00:00 8.7 10 Noroeste 18 Norte 0 1015.9 1.8 86
2019-12-05 03:00:00 8 3 Norte 8 Este 0 1015.1 1.5 93
2019-12-05 02:00:00 8.5 0 Calma 15 Norte 0 1014.8 1.6 90
2019-12-05 01:00:00 9.6 12 Norte 22 Norte 0 1014.1 1.2 85
2019-12-05 00:00:00 8.9 10 Sudeste 15 Sudeste 0 1013.6 1.2 93
2019-12-04 23:00:00 9.1 4 Sudeste 11 Este 0 1013.2 1 92
2019-12-04 22:00:00 9 4 Oeste 13 Noroeste 0 1012.9 1.1 93
2019-12-04 21:00:00 9.6 7 Oeste 30 Norte 0 1012.4 1.1 89
2019-12-04 20:00:00 10.7 20 Noroeste 32 Norte 0 1012.2 1.5 85
2019-12-04 19:00:00 10.9 11 Oeste 22 Noroeste 0 1011.8 1.2 81
2019-12-04 18:00:00 10.8 11 Noroeste 24 Noroeste 0 1011.3 0.9 81
2019-12-04 17:00:00 11.2 19 Oeste 30 Oeste 0 1010.7 0.7 78
2019-12-04 16:00:00 11.8 22 Oeste 32 Noroeste 0 1010.6 0.1 76
2019-12-04 15:00:00 11.6 17 Noroeste 24 Noroeste 0 1010.4 -0.4 73
2019-12-04 14:00:00 11.2 15 Oeste 24 Oeste 0 1010 -0.7 64
2019-12-04 13:00:00 10.4 10 Oeste 17 Oeste 0 1010.5 -0.2 71
2019-12-04 12:00:00 8.9 4 Este 8 Este 0 1010.8 0.6 75
2019-12-04 11:00:00 6.7 5 Este 15 Sudeste 0 1010.7 0.8 82
2019-12-04 10:00:00 3.9 3 Este 13 Este 0 1010.7 1.3 90
2019-12-04 09:00:00 2.2 5 Este 21 Este 0 1010.2 0.9 94
2019-12-04 08:00:00 2.1 14 Este 22 Este 0 1009.9 -0.3 93
2019-12-04 07:00:00 2 5 Nordeste 9 Nordeste 0 1009.4 -1.1 94
2019-12-04 06:00:00 1.7 7 Este 15 Este 0 1009.3 -1.8 94
2019-12-04 05:00:00 2 9 Este 13 Este 0 1010.2 -1.5 94
2019-12-04 04:00:00 2.4 0 Calma 18 Este 0 1010.5 -2.2 93
2019-12-04 03:00:00 2.4 9 Nordeste 17 Este 0 1011.1 -2.4 94
2019-12-04 02:00:00 2.3 8 Este 17 Este 0 1011.7 -2.1 95
2019-12-04 01:00:00 2.4 9 Este 18 Sudeste 0 1012.7 -1.2 94
2019-12-04 00:00:00 2.5 9 Este 11 Sudeste 0 1013.5 -0.8 94
2019-12-03 23:00:00 3.1 4 Sudeste 13 Este 0 1013.8 -0.6 94
2019-12-03 22:00:00 3.2 4 Este 11 Sudeste 0 1013.9 -0.4 95
2019-12-03 21:00:00 4 8 Sudeste 11 Este 0 1014.3 -0.1 95
2019-12-03 20:00:00 4.5 8 Este 11 Este 0 1014.4 0.3 93
2019-12-03 19:00:00 5.4 6 Este 15 Nordeste 0 1014.3 -0.3 88
2019-12-03 18:00:00 7.6 6 Este 13 Norte 0 1014.4 -0.4 79
2019-12-03 17:00:00 8.2 5 Nordeste 11 Norte 0 1014.1 -1.4 76
2019-12-03 16:00:00 8.3 7 Nordeste 15 Nordeste 0 1014.6 -1.7 77
2019-12-03 15:00:00 9.1 10 Nordeste 15 Nordeste 0 1014.8 -2.9 71
2019-12-03 14:00:00 8.9 8 Este 15 Nordeste 0 1015.5 -2.7 74
2019-12-03 13:00:00 8.8 11 Nordeste 28 Norte 0 1016.3 -1.9 73
2019-12-03 12:00:00 8.7 6 Nordeste 13 Este 0 1017.7 -0.6 77
2019-12-03 11:00:00 8 0 Calma 5 Sur 0 1018.2 -0.1 82
2019-12-03 10:00:00 7.2 0 Calma 8 Norte 0 1018.2 -0.3 89
2019-12-03 09:00:00 6.9 4 Oeste 8 Oeste 0 1018.3 -0.3 91
2019-12-03 08:00:00 6.9 5 Este 9 Nordeste 0 1018.3 -0.8 89
2019-12-03 07:00:00 7.2 3 Este 15 Norte 0 1018.5 -1.1 90
2019-12-03 06:00:00 6.9 7 Norte 15 Norte 0 1018.6 -1.2 90
2019-12-03 05:00:00 6.5 2 Oeste 8 Noroeste 0 1019.1 -0.8 95
2019-12-03 04:00:00 6.5 4 Oeste 9 Oeste 0.1 1019.6 -0.7 93
2019-12-03 03:00:00 6.7 3 Sudoeste 11 Norte 0.7 1019.8 -0.8 91
2019-12-03 02:00:00 7.5 9 Noroeste 17 Norte 0 1019.9 -0.8 80
2019-12-03 01:00:00 7.8 8 Norte 22 Nordeste 0 1020.3 -0.7 80
2019-12-03 00:00:00 8.1 8 Norte 18 Norte 0 1020.6 -0.6 76
2019-12-02 23:00:00 7.9 8 Norte 15 Noroeste 0 1020.7 -0.4 83
2019-12-02 22:00:00 8.3 9 Noroeste 18 Norte 0 1021 0.3 77
2019-12-02 21:00:00 8.5 11 Norte 18 Norte 0 1021.2 0.8 74
2019-12-02 20:00:00 8.3 6 Noroeste 15 Noroeste 0 1021.1 0.8 80
2019-12-02 19:00:00 8.3 9 Noroeste 13 Noroeste 0 1020.7 0.8 80
2019-12-02 18:00:00 8.5 6 Noroeste 13 Norte 0 1020.4 1 75
2019-12-02 17:00:00 8.7 4 Norte 13 Norte 0 1020.3 1.2 76
2019-12-02 16:00:00 9 8 Norte 33 Nordeste 0 1019.9 0.8 78
2019-12-02 15:00:00 9.3 16 Norte 32 Norte 0 1019.4 0.3 79
2019-12-02 14:00:00 9.6 15 Norte 30 Norte 0 1019.1 0.2 82
2019-12-02 13:00:00 10.1 15 Norte 32 Nordeste 0 1019.1 1.2 86
2019-12-02 12:00:00 10.5 17 Nordeste 35 Nordeste 0.1 1019.1 1.8 82
2019-12-02 11:00:00 10.3 18 Norte 32 Nordeste 0.2 1018.9 2.3 86
2019-12-02 10:00:00 9.7 9 Norte -- -- -- 1017.9 2.1 92
2019-12-02 09:00:00 9.4 6 Nordeste 15 Nordeste 1 1017.3 2 96
2019-12-02 08:00:00 8.9 2 Sudeste 8 Sudeste 0 1016.6 1.7 98
2019-12-02 07:00:00 9 5 Oeste 9 Oeste 0 1015.8 0.9 98
2019-12-02 06:00:00 8.9 0 Calma 8 Norte 0.1 1015.3 0.7 98
2019-12-02 05:00:00 9 2 Oeste 11 Norte 0.4 1014.9 0.9 98
2019-12-02 04:00:00 9 5 Oeste 8 Oeste 0.9 1014.9 1.1 98
2019-12-02 03:00:00 9 5 Noroeste 17 Este 1.9 1014.6 1.1 98
2019-12-02 02:00:00 8.9 0 Calma 5 Nordeste 0 1014 0.8 98
2019-12-02 01:00:00 8.7 0 Calma 11 Este 1.6 1013.8 0.8 97
2019-12-02 00:00:00 8.8 4 Este 9 Nordeste 0 1013.5 1.3 96
2019-12-01 23:00:00 9 0 Calma 9 Oeste 2.8 1013.2 1.7 96
2019-12-01 22:00:00 9.4 5 Oeste 9 Oeste 3.1 1013 2.6 96
2019-12-01 21:00:00 9.5 5 Oeste 9 Oeste 3.9 1012.2 2.7 96
2019-12-01 20:00:00 9.5 8 Oeste 32 Noroeste 4.2 1011.5 2.5 94
2019-12-01 19:00:00 10.9 16 Oeste 24 Noroeste 0 1010.4 1.8 88
2019-12-01 18:00:00 11.4 8 Noroeste 17 Noroeste 0 1009.5 1 85
2019-12-01 17:00:00 13.1 9 Noroeste 13 Noroeste 0 1009 0.6 78
2019-12-01 16:00:00 13.3 8 Oeste 22 Noroeste 0 1008.6 0.3 75
2019-12-01 15:00:00 14.1 14 Noroeste 21 Noroeste 0 1008.5 0.1 71
2019-12-01 14:00:00 14.8 16 Oeste 28 Oeste 0 1008.4 0.1 64
2019-12-01 13:00:00 15 10 Sudoeste 17 Sudoeste 0 1008.3 0.5 59
2019-12-01 12:00:00 13.4 3 Nordeste 11 Este 0 1008.4 1.1 70
2019-12-01 11:00:00 10.1 7 Sudeste 11 Sudeste 0 1008.3 1.6 89
2019-12-01 10:00:00 8.1 8 Este 11 Sudeste 0 1007.8 1.7 91
2019-12-01 09:00:00 7.7 4 Este 9 Sudeste 0 1007.3 1.5 90
2019-12-01 08:00:00 7.7 6 Este 11 Este 0 1006.7 0.6 87
2019-12-01 07:00:00 7.8 5 Sudeste 15 Este 0 1006.1 -0.6 86
2019-12-01 06:00:00 8.3 10 Este 18 Sudeste 0 1005.8 -1.2 85
2019-12-01 05:00:00 7.1 9 Este 17 Este 0 1006.1 -1.2 90
2019-12-01 04:00:00 6.7 8 Sudeste 15 Sudeste 0 1006.7 -1.4 93
2019-12-01 03:00:00 6.5 10 Este 15 Este 0 1007 -1.5 96
2019-12-01 02:00:00 6.4 14 Este 17 Sudeste 0 1007.3 -1.7 97
2019-12-01 01:00:00 6.7 12 Sudeste 18 Sudeste 0 1008.1 -1.5 97
2019-12-01 00:00:00 6.7 9 Este 15 Sudeste 0 1008.5 -1 98
2019-11-30 23:00:00 7.3 9 Sudeste 17 Este 0 1009 -0.8 98
2019-11-30 22:00:00 7.3 8 Este 11 Este 0 1009.6 0 98
2019-11-30 21:00:00 8.5 6 Nordeste 11 Nordeste 0 1009.5 0 97
2019-11-30 20:00:00 8.8 6 Este 11 Este 0 1009.8 0.3 96
2019-11-30 19:00:00 10.6 5 Este 11 Nordeste 0 1009.6 -0.3 94
2019-11-30 18:00:00 11.3 10 Este 17 Este 0 1009.5 -0.4 93
2019-11-30 17:00:00 11.3 10 Este 15 Sudeste 0.3 1009.5 -0.6 95
2019-11-30 16:00:00 11.9 5 Este 13 Este 0.9 1009.9 -0.9 95
2019-11-30 15:00:00 11.7 9 Este 15 Este 2.3 1009.9 -1.4 96
2019-11-30 14:00:00 11.5 9 Este 11 Este 4.5 1010.1 -1 97
2019-11-30 13:00:00 11.9 5 Sudeste 13 Oeste 3.2 1010.8 1.3 95
2019-11-30 12:00:00 11.9 7 Oeste 30 Oeste 1.4 1011.3 3.4 94
2019-11-30 11:00:00 12.1 29 Oeste 55 Noroeste 1.7 1011.1 3.9 92
2019-11-30 10:00:00 18.8 24 Oeste 42 Norte 0 1009.5 1.5 62
2019-11-30 09:00:00 18.8 11 Sur 33 Sur 0 1007.9 -0.7 59
2019-11-30 08:00:00 18 20 Sudeste 33 Sudeste 0 1007.2 -2.1 64
2019-11-30 07:00:00 17.9 12 Sudeste 35 Sudeste 0 1008 -2.2 67
2019-11-30 06:00:00 17.2 18 Sudeste 37 Sudeste 0 1008.6 -2.3 68
2019-11-30 05:00:00 17 15 Sudeste 30 Sur 0 1009.3 -2.5 66
2019-11-30 04:00:00 14.5 9 Sudeste 21 Este 0 1010.2 -2.8 75
2019-11-30 03:00:00 11.4 12 Este 22 Sudeste 0 1010.9 -3.2 83
2019-11-30 02:00:00 10.2 14 Sudeste 28 Este 0 1011.8 -2.9 88
2019-11-30 01:00:00 9.1 13 Este 18 Este 0 1013 -2.1 93
2019-11-30 00:00:00 9 9 Este 15 Este 0 1014.1 -1.3 94
2019-11-29 23:00:00 9.6 9 Sudeste 18 Este 0 1014.7 -0.9 95
2019-11-29 22:00:00 9.6 5 Sudeste 13 Este 0 1015.1 -0.5 95
2019-11-29 21:00:00 9.8 10 Este 13 Este 0 1015.4 0.1 95
2019-11-29 20:00:00 10.4 4 Este 8 Este 0 1015.6 0.5 92
2019-11-29 19:00:00 11.9 0 Calma 9 Nordeste 0 1015.6 0.8 86
2019-11-29 18:00:00 13.9 5 Nordeste 21 Nordeste 0 1015.3 0.3 74
2019-11-29 17:00:00 15.7 10 Nordeste 15 Nordeste 0 1015.1 -0.2 68
2019-11-29 16:00:00 17.1 7 Sudeste 13 Sudeste 0 1014.8 -1.1 67
2019-11-29 15:00:00 17.3 3 Nordeste 9 Sudeste 0 1015 -1.5 61
2019-11-29 14:00:00 18.2 3 Sudoeste 9 Oeste 0 1015.3 -1.1 59
2019-11-29 13:00:00 17.4 6 Sudoeste 9 Sudoeste 0 1015.9 0.2 65
2019-11-29 12:00:00 15.5 4 Sudeste 13 Nordeste 0 1016.5 1.4 82
2019-11-29 11:00:00 14.8 7 Este 11 Sudeste 0 1016.4 1.9 87
2019-11-29 10:00:00 11.6 5 Este 13 Este 0 1015.7 2.1 99
2019-11-29 09:00:00 10.4 10 Este 13 Este 0 1015.1 2.2 99
2019-11-29 08:00:00 9.6 8 Este 15 Este 0 1014.5 2.3 99
2019-11-29 07:00:00 9.1 7 Este 11 Este 0 1013.6 2.1 99
2019-11-29 06:00:00 9.4 6 Este 9 Este 0 1012.9 1.9 99
2019-11-29 05:00:00 10.4 4 Este 9 Este 0 1012.2 1.9 99
2019-11-29 04:00:00 10.9 8 Este 9 Nordeste 0 1011.5 1.8 98
2019-11-29 03:00:00 11.6 3 Este -- -- 0 1011 2 98
2019-11-29 02:00:00 11.6 5 Este 5 Nordeste 0.5 1010.3 2.5 98
2019-11-29 01:00:00 11.6 4 Este 5 Este 0.2 1009.7 2.7 97
2019-11-29 00:00:00 11.7 5 Oeste 9 Oeste 0 1009 2.3 96
2019-11-28 23:00:00 11.8 3 Sudeste 13 Este 0 1007.8 0.7 94
2019-11-28 22:00:00 11.5 5 Sudeste 13 Sudeste 0 1007 -0.1 93
2019-11-28 21:00:00 11.4 8 Este 17 Este 0 1006.7 -0.6 95
2019-11-28 20:00:00 11.5 10 Este 21 Nordeste 0 1007.1 -0.8 94
2019-11-28 19:00:00 11.7 13 Este 17 Este 0.1 1007.1 0.3 93
2019-11-28 18:00:00 11.9 8 Sudeste 9 Sudeste 2.4 1007.3 0.4 96
2019-11-28 17:00:00 12.5 2 Oeste 5 Oeste 3.4 1007.9 0.9 95
2019-11-28 16:00:00 13 4 Nordeste 8 Nordeste 0 1006.8 -0.9 90
2019-11-28 15:00:00 13.3 0 Calma 13 Sudeste 0 1006.9 -1.6 86
2019-11-28 14:00:00 13.5 6 Este 13 Este 0 1007 -1.6 85
2019-11-28 13:00:00 13.3 7 Este 13 Nordeste 0 1007.7 -0.8 86
2019-11-28 12:00:00 12.8 6 Este 11 Este 0 1008.5 0.4 89
2019-11-28 11:00:00 12.1 7 Este 15 Este 0 1008.6 1.5 92
2019-11-28 10:00:00 10.7 7 Este 11 Este 0 1008.5 2.1 96
2019-11-28 09:00:00 9.6 2 Este 11 Nordeste 0 1008.1 2.3 97
2019-11-28 08:00:00 9.2 4 Este 8 Sudeste 0 1007.1 2 97
2019-11-28 07:00:00 9.1 8 Nordeste 11 Nordeste 0 1006.4 1.3 97
2019-11-28 06:00:00 8.9 8 Este 17 Este 0 1005.8 1.4 97
2019-11-28 05:00:00 8 9 Este 13 Este 0.1 1005.1 0.6 97
2019-11-28 04:00:00 8.4 3 Sudeste 11 Este 0 1005.1 0.6 97
2019-11-28 03:00:00 8.4 9 Este 13 Este 0 1004.4 0 96
2019-11-28 02:00:00 9.3 11 Este 13 Este 0 1004.5 0.3 97
2019-11-28 01:00:00 9.6 6 Este 9 Este 0 1004.5 0.3 95
2019-11-28 00:00:00 10.8 3 Norte 9 Este 0 1004.4 -0.1 92
2019-11-27 23:00:00 10.9 5 Sudeste 9 Sudeste 0 1004.2 -0.7 94
2019-11-27 22:00:00 10.8 4 Nordeste 17 Este 0 1004.2 -0.3 95
2019-11-27 21:00:00 11.2 8 Este 15 Este 0 1004.5 0.6 94
2019-11-27 20:00:00 11.1 4 Sudeste 9 Sudeste 0 1004.9 0.5 94
2019-11-27 19:00:00 12.1 4 Este 18 Nordeste 0 1004.5 2 86
2019-11-27 18:00:00 11.9 3 Sudeste 18 Este 0.7 1003.9 1.7 89
2019-11-27 17:00:00 12.4 6 Oeste 39 Noroeste 1.4 1004.4 2.4 88
2019-11-27 16:00:00 16.6 20 Sudoeste 41 Sudoeste 0 1002.5 0.1 54
2019-11-27 15:00:00 16.8 19 Sudoeste 39 Sudoeste 0 1002.2 -1 52
2019-11-27 14:00:00 16.9 22 Sudoeste 45 Sudoeste 0 1002 -1.5 52
2019-11-27 06:00:00 14.6 15 Sudoeste 28 Sudoeste 0 1000.2 1.7 53
2019-11-27 05:00:00 12.2 5 Oeste 13 Oeste 0 1000.1 1.9 62
2019-11-27 04:00:00 14.3 10 Oeste 22 Oeste 0 999.4 1.6 52
2019-11-27 03:00:00 14.9 12 Oeste 30 Oeste 0 998.5 1.4 50
2019-11-27 02:00:00 12.5 4 Oeste 24 Noroeste 0 998.2 1 78
2019-11-27 01:00:00 11.8 9 Oeste 24 Norte 0 997.8 0.6 84
2019-11-27 00:00:00 11.2 11 Este 18 Este 0 997.1 1.4 92
2019-11-26 23:00:00 12.5 12 Este 17 Nordeste 0 997.2 2.4 87
2019-11-26 22:00:00 13.4 12 Noroeste 61 Noroeste 0 997.2 2.4 86
2019-11-26 21:00:00 20.7 33 Sudoeste 65 Oeste 0 995.7 1.2 42
2019-11-26 20:00:00 20.3 24 Sudoeste 45 Sudoeste 0 994.8 -0.2 49
2019-11-26 19:00:00 17.1 17 Sur 37 Sur 0.1 994.8 -1.4 81
2019-11-26 18:00:00 20.8 20 Sur 33 Sur 0 994.5 -3.5 56
2019-11-26 17:00:00 20.9 13 Sur 28 Oeste 0 995 -4.1 55
2019-11-26 16:00:00 19.1 4 Nordeste 21 Este 0 996.2 -3.7 64
2019-11-26 15:00:00 20 7 Este 26 Sudeste 0 998 -2.9 60
2019-11-26 14:00:00 21 13 Sudoeste 39 Sudoeste 0 999.1 -2.6 53
2019-11-26 13:00:00 20.8 7 Sudeste 37 Sur 0 999.9 -2.1 56
2019-11-26 12:00:00 20.8 23 Sur 54 Sur 0 1000.9 -1.2 54
2019-11-26 11:00:00 19.2 14 Sur 59 Sudeste 0 1001.7 -0.5 60
2019-11-26 10:00:00 18.7 12 Sudeste 54 Sudoeste 0 1002 -0.4 59
2019-11-26 09:00:00 17.9 12 Sudeste 35 Sudeste 0 1002.1 -0.6 59
2019-11-26 08:00:00 17.9 15 Sur 42 Sudoeste 0 1002.2 -1.1 57
2019-11-26 07:00:00 17.1 10 Sur 33 Sur 0 1002.4 -1.8 59
2019-11-26 06:00:00 17.2 22 Sur 39 Sur 0 1002.7 -1.2 57
2019-11-26 05:00:00 16.4 11 Sudeste 26 Sudeste 0 1003.3 -1.4 58
2019-11-26 04:00:00 16.2 8 Sur 26 Sur 0 1004.2 -1.3 58
2019-11-26 03:00:00 15.7 12 Este 26 Este 0 1003.9 -2.2 61
2019-11-26 02:00:00 13.4 4 Este 18 Este 0 1004.7 -2 73
2019-11-26 01:00:00 12.1 14 Este 24 Este 0 1005.5 -2.4 83
2019-11-26 00:00:00 11 14 Este 24 Este 0 1006.1 -2.4 95
2019-11-25 23:00:00 10.5 13 Este 18 Este 0 1006.7 -1.9 96
2019-11-25 22:00:00 10.8 8 Este 15 Este 0 1007.9 -0.6 96
2019-11-25 21:00:00 12.1 7 Este 15 Este 0 1008.5 0.2 92
2019-11-25 20:00:00 13.5 8 Este 13 Este 0 1008.6 0.4 90
2019-11-25 19:00:00 14.1 3 Este 11 Nordeste 0 1008.5 0.5 87
2019-11-25 18:00:00 14.9 5 Este 9 Norte 0 1008.3 1 82
2019-11-25 17:00:00 15.4 3 Norte 13 Norte 0 1008.2 0.7 78
2019-11-25 16:00:00 15.8 10 Noroeste 17 Noroeste 0 1008 0.6 77
2019-11-25 15:00:00 16.7 9 Oeste 18 Noroeste 0 1007.3 0.1 75
2019-11-25 14:00:00 16.7 12 Noroeste 26 Noroeste 0 1007.5 0.5 77
2019-11-25 13:00:00 17.1 12 Norte 18 Norte 0 1007.4 0.9 72
2019-11-25 12:00:00 16.8 0 Calma 9 Sudeste 0 1007.2 1.2 75
2019-11-25 11:00:00 15.5 4 Sudeste 13 Sudeste 0 1007 1.3 78
2019-11-25 10:00:00 12.9 8 Sudeste 17 Norte 0 1006.5 1.6 87
2019-11-25 09:00:00 11.6 7 Sudeste 17 Norte 0 1006 1.9 91
2019-11-25 08:00:00 12.5 5 Norte 17 Noroeste 0 1005.7 2.6 83
2019-11-25 07:00:00 12.9 9 Este 28 Sudoeste 0 1004.9 1.6 78
2019-11-25 06:00:00 15.2 12 Sudoeste 28 Sur 0 1004.1 0.6 66
2019-11-25 05:00:00 14.4 15 Sudeste 26 Sudeste 0 1003.1 -0.9 69
2019-11-25 04:00:00 13.9 7 Este 21 Sudeste 0 1003.3 -0.9 69
2019-11-25 03:00:00 14.3 5 Este 26 Sur 0 1003.5 -0.7 67
2019-11-25 02:00:00 14.4 12 Sur 22 Sur 0 1004 -0.1 67
2019-11-25 01:00:00 14.2 9 Este 21 Sur 0 1004.2 -0.6 69
2019-11-25 00:00:00 13.7 9 Sudeste 21 Sudeste 0 1004.2 -0.2 70
2019-11-24 23:00:00 12.4 10 Este 26 Este 0.1 1004.1 0 77
2019-11-24 22:00:00 12.1 7 Sudeste 32 Sudoeste 1.3 1004.8 0.3 80
2019-11-24 21:00:00 14.1 19 Sur 35 Sur 0 1004.4 -0.5 59
2019-11-24 20:00:00 13.4 15 Sur 33 Sur 0 1004.1 -1.4 58
2019-11-24 19:00:00 14 13 Sur 22 Sur 0 1004.5 -1.6 54
2019-11-24 18:00:00 13.3 7 Sudeste 21 Sudeste 0 1004.9 -1.7 56
2019-11-24 17:00:00 13.7 10 Sudeste 26 Sur 0 1005.5 -2 57
2019-11-24 16:00:00 14.2 12 Sudeste 24 Sudeste 0 1006.1 -2.1 61
2019-11-24 15:00:00 14.5 13 Sudeste 21 Este 0 1006.6 -2.4 66
2019-11-24 14:00:00 13 9 Nordeste 18 Sur 0 1007.5 -1.7 74
2019-11-24 13:00:00 12.4 10 Este 13 Este 0 1008.2 -0.7 77
2019-11-24 12:00:00 11.2 5 Sudeste 13 Este 0 1009 0.5 89
2019-11-24 11:00:00 10.6 5 Este 9 Este 0 1009.2 1.4 92
2019-11-24 10:00:00 10.3 0 Calma 8 Este 0.1 1008.9 1.6 89
2019-11-24 09:00:00 10.4 4 Oeste 13 Sudoeste 0 1008.5 1.9 85
2019-11-24 08:00:00 10.3 8 Oeste 17 Oeste 0.2 1007.8 1.5 85
2019-11-24 07:00:00 10 6 Sudoeste 11 Sudoeste 0.2 1007.3 1.6 88
2019-11-24 06:00:00 11.1 10 Oeste 26 Oeste 0.2 1006.6 1.3 76
2019-11-24 05:00:00 10.9 11 Oeste 28 Oeste 0 1006.3 1.1 78
2019-11-24 04:00:00 10.2 12 Oeste 21 Oeste 0.8 1005.7 1.1 83
2019-11-24 03:00:00 9.9 0 Calma 30 Oeste 1.8 1005.3 0.8 88
2019-11-24 02:00:00 10.2 10 Oeste 33 Oeste 1 1005.2 1.1 86
2019-11-24 01:00:00 10.3 10 Oeste 30 Oeste 0.3 1004.6 0.8 81
2019-11-24 00:00:00 10.4 17 Oeste 39 Oeste 0.6 1004.5 1.4 79
2019-11-23 23:00:00 11.4 21 Oeste 50 Oeste 0 1004.1 1.4 70
2019-11-23 22:00:00 11.3 23 Oeste 45 Noroeste 0.1 1003.8 2.2 71
2019-11-23 21:00:00 10.8 16 Oeste 39 Oeste 0.6 1003.1 2.7 80
2019-11-23 20:00:00 11 23 Oeste 35 Noroeste 0.2 1002.7 3.2 75
2019-11-23 19:00:00 11.1 15 Oeste 46 Oeste 0 1001.6 3.3 75
2019-11-23 18:00:00 11.3 19 Oeste 45 Oeste 1.4 1000.4 3.5 77
2019-11-23 17:00:00 11.7 23 Oeste 45 Oeste 0.4 999.5 3.4 79
2019-11-23 16:00:00 10.9 26 Oeste 58 Noroeste 2.2 998.3 2.7 83
2019-11-23 15:00:00 12.1 17 Oeste 76 Noroeste 0.9 996.9 2 80
2019-11-23 14:00:00 13.7 39 Oeste 67 Oeste 0 996.1 2.8 61
2019-11-23 13:00:00 11.5 33 Noroeste 58 Oeste 0.3 995.6 4.3 81
2019-11-23 12:00:00 10.1 38 Noroeste 71 Noroeste 7.5 994.9 5.2 91
2019-11-23 11:00:00 12.8 41 Oeste 82 Noroeste 0.4 993.3 6 60
2019-11-23 10:00:00 12.2 40 Oeste 74 Oeste 0.9 991.3 5.9 68
2019-11-23 09:00:00 10.6 45 Oeste 82 Oeste 2.9 989.7 5.6 86
2019-11-23 08:00:00 11.2 49 Oeste 82 Oeste 4.1 987.3 4.7 84
2019-11-23 07:00:00 11.5 50 Oeste 85 Oeste 3 985.4 3 83
2019-11-23 06:00:00 11.3 20 Oeste 41 Sudoeste 3 984.1 3.3 88
2019-11-23 05:00:00 11 26 Sudoeste 46 Sur 1.7 982.6 2.4 82
2019-11-23 04:00:00 12.4 18 Sudoeste 45 Sudoeste 0.8 982.4 2.6 72
2019-11-23 03:00:00 14.8 22 Sudoeste 46 Sudoeste 0 980.8 0.9 55
2019-11-23 02:00:00 15.7 26 Sudoeste 52 Sudoeste 0 980.2 0.3 49
2019-11-23 01:00:00 16 28 Sudoeste 52 Sudoeste 0 979.8 -0.1 48
2019-11-23 00:00:00 16.2 30 Sur 61 Sur 0 979.9 0.4 49
2019-11-22 23:00:00 16.1 31 Sur 61 Sur 0 979.9 0 48
2019-11-22 22:00:00 16.1 27 Sudoeste 63 Sudoeste 0 979.9 -0.3 48
2019-11-22 21:00:00 15.7 12 Sur 28 Sur 0 979.5 -0.6 52
2019-11-22 20:00:00 12.9 19 Sudeste 35 Sudeste 0 979.9 0.2 75
2019-11-22 19:00:00 15.4 18 Sur 41 Sur 0 980.2 -0.2 61
2019-11-22 18:00:00 13.5 21 Sudeste 48 Este 0 980.1 -0.1 69
2019-11-22 17:00:00 13.8 28 Este 59 Sudeste 0 979.7 -2.4 67
2019-11-22 16:00:00 13.8 35 Sudeste 67 Sudeste 0 980.4 -2.9 68
2019-11-22 15:00:00 12.8 48 Sudeste 72 Este 0 980.2 -3.6 73
2019-11-22 14:00:00 13.9 35 Este 61 Sudeste 0.1 982.1 -3.7 65
2019-11-22 13:00:00 13.9 17 Sudeste 45 Sudeste 0 983.3 -4.5 60
2019-11-22 12:00:00 14.3 21 Sudeste 58 Este 0 983.8 -- 59
2019-11-22 11:00:00 12.9 18 Sudeste 52 Sudeste 0 985.8 -- 61
2019-11-22 10:00:00 12.2 27 Sudeste -- -- -- 987.8 -- 64
2019-11-22 09:00:00 -- -- -- -- -- -- -- -- --
2019-11-22 08:00:00 -- -- -- -- -- -- -- -- --
2019-11-22 07:00:00 -- -- -- -- -- -- -- -- --
2019-11-22 06:00:00 -- -- -- -- -- -- -- -- --
2019-11-22 05:00:00 -- -- -- -- -- -- -- -- --
2019-11-22 04:00:00 -- -- -- -- -- -- -- -- --
2019-11-22 03:00:00 -- -- -- -- -- -- -- -- --
2019-11-22 02:00:00 -- -- -- -- -- -- -- -- --
2019-11-22 01:00:00 -- -- -- -- -- -- -- -- --
2019-11-22 00:00:00 -- -- -- -- -- -- -- -- --
2019-11-21 23:00:00 -- -- -- -- -- -- -- -- --
2019-11-21 22:00:00 7.2 13 Este 17 Este 0 1000.3 -0.5 83
2019-11-21 21:00:00 6.7 4 Nordeste 15 Este 0 1000.7 0.2 88
2019-11-21 20:00:00 7.5 7 Este 13 Este 0 1001 0.6 87
2019-11-21 19:00:00 8.5 6 Este 13 Este 0 1000.8 0.8 82
2019-11-21 18:00:00 10.1 8 Este 11 Este 0 1000.5 1.4 76
2019-11-21 17:00:00 12.7 0 Calma 9 Noroeste 0 1000.4 1.1 59
2019-11-21 16:00:00 13.7 5 Oeste 26 Noroeste 0 1000 0.4 58
2019-11-21 15:00:00 16.7 14 Oeste 28 Sudoeste 0 999.1 -1.1 42
2019-11-21 14:00:00 16.5 16 Sudoeste 33 Sudoeste 0 999.3 -0.8 44
2019-11-21 13:00:00 15.4 23 Sudoeste 41 Sudoeste 0 999.6 -0.5 48
2019-11-21 12:00:00 14.7 20 Sur 37 Sudoeste 0 1000.2 0.2 51
2019-11-21 11:00:00 14.1 22 Sudoeste 41 Sudoeste 0 1000.1 0.6 51
2019-11-21 10:00:00 12.3 5 Oeste 21 Este 0 1000.1 0.8 59
2019-11-21 09:00:00 10.9 13 Sudeste 21 Sudeste 0 1000 0.8 63
2019-11-21 08:00:00 -- -- -- -- -- -- -- -- --
2019-11-21 07:00:00 -- -- -- -- -- -- -- -- --
2019-11-21 06:00:00 -- -- -- -- -- -- -- -- --
2019-11-21 05:00:00 -- -- -- -- -- -- -- -- --
2019-11-21 04:00:00 -- -- -- -- -- -- -- -- --
2019-11-21 03:00:00 -- -- -- -- -- -- -- -- --
2019-11-21 02:00:00 -- -- -- -- -- -- -- -- --
2019-11-21 01:00:00 -- -- -- -- -- -- -- -- --
2019-11-21 00:00:00 -- -- -- -- -- -- -- -- --
2019-11-20 23:00:00 -- -- -- -- -- -- -- -- --
2019-11-20 22:00:00 -- -- -- -- -- -- -- -- --
2019-11-20 21:00:00 -- -- -- -- -- -- -- -- --
2019-11-20 20:00:00 -- -- -- -- -- -- -- -- --
2019-11-20 19:00:00 11.9 21 Sur 46 Sur 0 1000.7 0.3 58
2019-11-20 18:00:00 12.3 22 Sur 39 Sur 0 1000.8 0.2 55
2019-11-20 17:00:00 13 20 Sur 33 Sur 0 1000.6 -0.4 54
2019-11-20 16:00:00 13.4 17 Sudeste 37 Sur 0 1000.4 -1.2 53
2019-11-20 15:00:00 13.4 19 Sur 39 Sur 0 1000.6 -2 52
2019-11-20 14:00:00 13.6 27 Sur 46 Sur 0 1001 -2.1 50
2019-11-20 13:00:00 14.5 23 Sur 46 Sur 0 1001.6 -1.8 46
2019-11-20 12:00:00 13.2 22 Sur 42 Sur 0 1002.6 -1 50
2019-11-20 11:00:00 12.4 15 Sur 35 Sur 0 1003.1 -0.5 52
2019-11-20 10:00:00 11.3 15 Sur 33 Sudeste 0 1003.4 -0.4 56
2019-11-20 09:00:00 10.9 17 Sur 35 Sur 0 1003.6 -0.4 57
2019-11-20 08:00:00 10.7 19 Sudeste 30 Sur 0 1003.6 -0.9 58
2019-11-20 07:00:00 9.8 15 Sudeste 28 Sur 0 1003.8 -1.4 63
2019-11-20 06:00:00 7.9 13 Este 26 Sudeste 0 1004 -1.8 73
2019-11-20 05:00:00 7.5 9 Este 22 Este 0 1004.5 -1.9 74
2019-11-20 04:00:00 7.1 14 Este 21 Este 0 1005.2 -1.7 77
2019-11-20 03:00:00 6.8 13 Este 18 Este 0 1005.8 -1.7 78
2019-11-20 02:00:00 6.6 8 Este 13 Este 0 1006.4 -1.7 78
2019-11-20 01:00:00 6.6 5 Nordeste 15 Sudeste 0 1006.9 -1.4 80
2019-11-20 00:00:00 6.8 8 Este 13 Este 0 1007.5 -0.9 80
2019-11-19 23:00:00 6.7 8 Este 13 Sudeste 0 1008.1 -0.7 83
2019-11-19 22:00:00 6.9 6 Este 17 Este 0 1008.3 -0.5 85
2019-11-19 21:00:00 7.5 14 Este 26 Sudeste 0 1008.4 -0.5 86
2019-11-19 20:00:00 8 11 Este 18 Este 0 1008.8 -0.3 86
2019-11-19 19:00:00 8.3 11 Este 17 Este 0 1008.8 -0.6 87
2019-11-19 18:00:00 9.4 12 Este 17 Este 0 1008.9 -0.9 81
2019-11-19 17:00:00 11 12 Este 18 Sudeste 0 1009.1 -1.5 75
2019-11-19 16:00:00 12.9 14 Sudeste 28 Sudeste 0 1009.4 -2.1 65
2019-11-19 15:00:00 14.2 13 Sudeste 21 Sudeste 0 1009.8 -3.1 62
2019-11-19 14:00:00 13.7 12 Sudeste 22 Sudeste 0 1010.6 -2.9 63
2019-11-19 13:00:00 12.9 12 Este 22 Este 0 1011.5 -2.5 69
2019-11-19 12:00:00 11 10 Este 17 Este 0 1012.9 -1.1 77
2019-11-19 11:00:00 9.4 11 Este 18 Sudeste 0 1013.5 -0.4 85
2019-11-19 10:00:00 6.7 8 Este 13 Este 0 1014 0.2 98
2019-11-19 09:00:00 5.4 3 Este 11 Sudeste 0 1014 0.3 99
2019-11-19 08:00:00 4.5 3 Nordeste 13 Sudeste 0 1013.9 0 98
2019-11-19 07:00:00 4.4 8 Este 13 Este 0 1013.8 -0.3 98
2019-11-19 06:00:00 5.2 3 Este 8 Este 0 1013.7 -0.7 98
2019-11-19 05:00:00 5.2 6 Este 13 Este 0 1013.9 -0.4 97
2019-11-19 04:00:00 5.9 9 Este 13 Este 0 1014.1 -0.7 98
2019-11-19 03:00:00 6.3 4 Este 9 Sudeste 0 1014.4 -0.8 98
2019-11-19 02:00:00 6.6 6 Este 9 Este 0 1014.3 -1.1 98
2019-11-19 01:00:00 7.1 5 Este 9 Nordeste 0 1014.8 -0.5 97
2019-11-19 00:00:00 7.3 8 Sudeste 11 Este 0 1015.2 0.1 96
2019-11-18 23:00:00 7.6 5 Este 13 Este 0 1015.4 0.6 96
2019-11-18 22:00:00 7.7 5 Este 11 Este 0.1 1015.3 0.9 96
2019-11-18 21:00:00 8.1 5 Este 11 Este 0 1015.1 1.1 93
2019-11-18 20:00:00 8.3 6 Sudeste 15 Este 0 1014.8 1 94
2019-11-18 19:00:00 8.7 3 Este 11 Sudeste 0 1014.4 1.1 88
2019-11-18 18:00:00 9.2 5 Este 17 Nordeste 0 1014 1.1 81
2019-11-18 17:00:00 10.7 7 Norte 21 Noroeste 0 1013.8 0.9 73
2019-11-18 16:00:00 11.5 13 Noroeste 24 Noroeste 0 1013.3 0.2 67
2019-11-18 15:00:00 11.2 7 Oeste 22 Norte 0 1012.9 -0.3 72
2019-11-18 14:00:00 11.7 4 Oeste 11 Noroeste 0 1012.9 0 74
2019-11-18 13:00:00 10.4 6 Oeste 22 Noroeste 0.1 1013.1 0.8 81
2019-11-18 12:00:00 9.5 8 Noroeste 15 Oeste 0.4 1013.2 1.9 91
2019-11-18 11:00:00 8.4 8 Sudoeste 11 Oeste 1.2 1012.9 -- 94
2019-11-18 10:00:00 8.1 10 Noroeste 22 Norte 2.7 1012.3 -- 93
2019-11-18 09:00:00 7.8 9 Nordeste -- -- -- 1011.3 -- 94
2019-11-18 08:00:00 -- -- -- -- -- -- -- -- --
2019-11-18 07:00:00 -- -- -- -- -- -- -- -- --
2019-11-18 06:00:00 -- -- -- -- -- -- -- -- --
2019-11-18 05:00:00 -- -- -- -- -- -- -- -- --
2019-11-18 04:00:00 7.9 0 Calma 13 Noroeste 0.7 1008.5 1.4 91
2019-11-18 03:00:00 7.8 5 Sudoeste 9 Oeste 0 1007.9 0.9 97
2019-11-18 02:00:00 7.9 0 Calma 17 Norte 0 1007.5 1.3 95
2019-11-18 01:00:00 8.9 11 Norte 21 Norte 3.6 1007.1 1.7 90
2019-11-18 00:00:00 8.3 10 Noroeste 15 Este 3.2 1007 2.5 97
2019-11-17 23:00:00 8.3 7 Este 15 Este 3 1006.2 2.7 97
2019-11-17 22:00:00 8.4 5 Este 15 Sudeste 0.9 1005.4 1.7 96
2019-11-17 21:00:00 8.9 10 Sudeste 21 Noroeste 1.5 1004.5 0.6 91
2019-11-17 20:00:00 10.1 9 Oeste 22 Oeste 0 1003.5 -0.6 76
2019-11-17 19:00:00 8.8 5 Este 15 Nordeste 0 1003.7 -0.2 94
2019-11-17 18:00:00 9.5 4 Oeste 30 Oeste 0.7 1003.9 -0.1 90
2019-11-17 17:00:00 10.3 21 Oeste 50 Oeste 0.7 1004.1 -0.2 81
2019-11-17 16:00:00 12 15 Noroeste 35 Oeste 0 1003.9 -0.4 78
2019-11-17 15:00:00 11.2 15 Oeste 41 Oeste 0.4 1004 -1.1 82
2019-11-17 14:00:00 10.4 11 Sudoeste 32 Sudoeste 1 1004.3 -0.9 87
2019-11-17 13:00:00 10.4 16 Sudoeste 33 Sudoeste 1.8 1004.3 -1.6 81
2019-11-17 12:00:00 9.1 15 Sur 28 Sur 0.7 1005.1 -0.7 85
2019-11-17 11:00:00 8.6 10 Este 22 Este 0.8 1005.2 -0.5 87
2019-11-17 10:00:00 8.3 7 Este 22 Sur 1 1005.9 -0.7 87
2019-11-17 09:00:00 8.4 7 Sur 11 Sur 0 1005.8 -1.1 81
2019-11-17 08:00:00 8.1 4 Sur 17 Este 0 1005.7 -1.4 85
2019-11-17 07:00:00 7.5 10 Este 15 Este 0 1006.6 -0.9 93
2019-11-17 06:00:00 7.6 12 Este 15 Nordeste 0 1006.9 -1.1 93
2019-11-17 05:00:00 7.4 7 Este 17 Este 0.2 1007.1 -1.3 95
2019-11-17 04:00:00 7.3 8 Este 17 Este 0.6 1007.5 -1.2 95
2019-11-17 03:00:00 7.5 7 Sudeste 11 Este 0.4 1008 -1 93
2019-11-17 02:00:00 8.2 3 Este 13 Sudoeste 0.1 1008.4 -1.1 86
2019-11-17 01:00:00 8.3 3 Oeste 21 Sudoeste 0.2 1008.7 -0.7 85
2019-11-17 00:00:00 7.2 5 Este 11 Este 0.1 1009 -0.6 95
2019-11-16 23:00:00 7.7 6 Sur 15 Sudoeste 1.1 1009.5 0 91
2019-11-16 22:00:00 8.1 5 Oeste 35 Oeste 1.3 1009.4 0.3 83
2019-11-16 21:00:00 8.8 11 Oeste 24 Oeste 0.2 1009.6 0.6 77
2019-11-16 20:00:00 8.6 9 Sudoeste 28 Oeste 0.2 1009.5 1 78
2019-11-16 19:00:00 8.8 19 Oeste 35 Sudoeste 0.8 1009.1 1.2 82
2019-11-16 18:00:00 8.8 16 Oeste 35 Oeste 0.7 1009 1.5 83
2019-11-16 17:00:00 9 10 Oeste 37 Oeste 1.4 1008.5 1.2 81
2019-11-16 16:00:00 9.9 21 Oeste 48 Oeste 0.7 1007.9 0.1 76
2019-11-16 15:00:00 9.9 19 Oeste 39 Oeste 0.6 1007.5 -0.5 79
2019-11-16 14:00:00 8.2 10 Sudoeste 28 Sudoeste 1.1 1007.3 -0.7 91
2019-11-16 13:00:00 7.8 11 Sudoeste 26 Sudoeste 2.5 1007.8 0.4 89
2019-11-16 12:00:00 7.5 15 Sudoeste 33 Sudoeste 3 1008 1.4 89
2019-11-16 11:00:00 7 9 Sudoeste 26 Sudoeste 4.2 1008 1.6 92
2019-11-16 10:00:00 7.1 15 Sudoeste 32 Sudoeste 2.9 1007.4 1.2 85
2019-11-16 09:00:00 7.3 13 Sudoeste 26 Sur 0.2 1006.6 0.5 80
2019-11-16 08:00:00 4.9 5 Sudoeste 17 Sudoeste 0 1006.4 0 94
2019-11-16 07:00:00 3.1 7 Este 13 Sudeste 0 1006.2 -0.1 97
2019-11-16 06:00:00 1.7 6 Este 13 Este 0 1006.1 -0.4 98
2019-11-16 05:00:00 1.6 8 Este 11 Este 0 1006.4 0.7 98
2019-11-16 04:00:00 1.9 9 Nordeste 13 Este 0 1006.3 0.9 98
2019-11-16 03:00:00 2.4 8 Este 11 Este 0 1006.5 1.5 98
2019-11-16 02:00:00 2.5 6 Este 11 Este 0 1005.7 1.1 97
2019-11-16 01:00:00 3.5 8 Nordeste 11 Este 0 1005.4 1.4 97
2019-11-16 00:00:00 4.5 8 Este 13 Este 0 1005 1.8 96
2019-11-15 23:00:00 5 6 Nordeste 13 Nordeste 0 1004.6 2 95
2019-11-15 22:00:00 5.9 4 Este 13 Este 0 1004 2.3 95
2019-11-15 21:00:00 6.4 6 Nordeste 13 Nordeste 0 1003.2 2.2 92
2019-11-15 20:00:00 6.8 4 Sur 13 Sudeste 0.1 1002.6 2.2 86
2019-11-15 19:00:00 7 3 Sudoeste 17 Sur 0.4 1001.7 1.8 85
2019-11-15 18:00:00 7 9 Este 15 Este 0.1 1001 1.5 92
2019-11-15 17:00:00 7.6 6 Sudoeste 21 Sudoeste 0 1000.4 1.8 80
2019-11-15 16:00:00 7.6 12 Sudoeste 37 Noroeste 0.4 999.9 1.5 84
2019-11-15 15:00:00 8.1 13 Oeste 33 Oeste 0.7 999.5 0.9 87
2019-11-15 14:00:00 9.2 8 Oeste 24 Noroeste 0.8 998.6 1 84
2019-11-15 13:00:00 10.5 16 Noroeste 24 Oeste 0 998.4 2.3 73
2019-11-15 12:00:00 10.3 10 Noroeste 35 Norte 0 998.6 3.3 75
2019-11-15 11:00:00 8.7 13 Noroeste 54 Norte 1.6 997.6 2.9 88
2019-11-15 10:00:00 9.1 26 Noroeste 61 Oeste 1.6 996.1 1.4 85
2019-11-15 09:00:00 9.2 31 Oeste 59 Oeste 0.1 995.3 1.3 82
2019-11-15 08:00:00 7.1 13 Sudoeste 24 Sudoeste 1.5 994.7 -0.2 88
2019-11-15 07:00:00 6.7 14 Sudoeste 42 Sudoeste 2.7 994.7 -0.6 88
2019-11-15 06:00:00 7.1 32 Sudoeste 52 Sudoeste 0.3 994 -1.9 82
2019-11-15 05:00:00 7 23 Sudoeste 41 Sudoeste 0.6 994.9 -0.9 84
2019-11-15 04:00:00 7.1 11 Oeste 30 Sudoeste 0 995.3 -1 78
2019-11-15 03:00:00 6.6 9 Sudoeste 24 Sudoeste 0.4 995.9 -0.4 81
2019-11-15 02:00:00 5.7 8 Sur 18 Sur 0 995.8 -0.7 86
2019-11-15 01:00:00 3.8 9 Este 11 Este 0 996.3 0.2 95
2019-11-15 00:00:00 4.8 5 Nordeste 11 Este 0 996.3 0.5 92
2019-11-14 23:00:00 6 3 Oeste 11 Sudoeste 0 996.5 1.2 80
2019-11-14 22:00:00 6.3 7 Oeste 11 Oeste 0 996.1 1.7 88
2019-11-14 21:00:00 7.1 6 Oeste 13 Oeste 0 995.8 1.9 85
2019-11-14 20:00:00 7.4 4 Oeste 24 Noroeste 0 995.3 1.8 84
2019-11-14 19:00:00 7.4 6 Nordeste 11 Este 0 994.4 1.1 93
2019-11-14 18:00:00 7.9 3 Oeste 9 Sudeste 0 993.9 0.9 87
2019-11-14 17:00:00 7.8 5 Sudeste 30 Noroeste 3.9 993.5 0.1 87
2019-11-14 16:00:00 10 8 Noroeste 26 Norte 0 993.3 -0.7 77
2019-11-14 15:00:00 12 8 Norte 21 Norte 0 993 -2.4 55
2019-11-14 14:00:00 12.2 14 Sur 26 Sudoeste 0 993.4 -2.5 49
2019-11-14 13:00:00 11.3 14 Sudoeste 30 Sudoeste 0 994 -2.3 56
2019-11-14 12:00:00 10.9 5 Sur 22 Sur 0 995.4 -1.8 62
2019-11-14 11:00:00 10.3 10 Sur 18 Sur 0 995.9 -1.8 63
2019-11-14 10:00:00 8.7 7 Sur 21 Sudoeste 0 996.3 -1.7 68
2019-11-14 09:00:00 6.5 6 Nordeste 15 Este 0 997.2 -1.4 84
2019-11-14 08:00:00 7.5 10 Sudoeste 21 Sudoeste 0 997.7 -1.4 74
2019-11-14 07:00:00 6.7 3 Nordeste 18 Sudoeste 0 998 -1.8 82
2019-11-14 06:00:00 6.7 14 Oeste 37 Sudoeste 0.1 998.6 -1.4 80
2019-11-14 05:00:00 6.7 12 Oeste 32 Oeste 1.8 999.1 -0.7 85
2019-11-14 04:00:00 7.3 20 Oeste 42 Oeste 2.7 999.8 -0.5 88
2019-11-14 03:00:00 8.1 24 Oeste 42 Oeste 3 1000 -0.4 89
2019-11-14 02:00:00 8.8 21 Oeste 39 Oeste 0.9 999.8 0 89
2019-11-14 01:00:00 9.6 23 Oeste 41 Noroeste 4.5 1000.3 -0.6 93
2019-11-14 00:00:00 10.8 28 Noroeste 46 Noroeste 0.5 1000.4 -1.6 89
2019-11-13 23:00:00 10.2 3 Noroeste 15 Sudeste 0 999.8 -4 85
2019-11-13 22:00:00 11 10 Este 17 Sudeste 0 1000.9 -4 84
2019-11-13 21:00:00 10.8 9 Este 13 Este 0 1002 -3.3 89
2019-11-13 20:00:00 10.7 5 Sur 9 Sur 0 1003.8 -2.4 92
2019-11-13 19:00:00 10.7 0 Calma 17 Nordeste 0 1004.9 -2.4 90
2019-11-13 18:00:00 10.9 6 Este 11 Este 0 1005.3 -2.1 87
2019-11-13 17:00:00 12.5 6 Sudeste 11 Sur 0 1006.2 -1.6 84
2019-11-13 16:00:00 11.6 11 Oeste 22 Oeste 0.3 1007.3 -0.7 86
2019-11-13 15:00:00 13.2 14 Oeste 24 Oeste 0 1007.4 -1 73
2019-11-13 14:00:00 13 15 Oeste 28 Oeste 0 1007.8 -0.3 73
2019-11-13 13:00:00 13.5 14 Oeste 26 Oeste 0 1008 0.4 72
2019-11-13 12:00:00 13.4 15 Noroeste 24 Noroeste 0 1008.4 1.8 70
2019-11-13 11:00:00 12.5 8 Noroeste 13 Noroeste 0.1 1008.1 2.8 82
2019-11-13 10:00:00 11.5 4 Oeste 8 Oeste 0 1007.6 3.2 93
2019-11-13 09:00:00 10.7 5 Oeste 8 Oeste 0 1006.6 3.3 94
2019-11-13 08:00:00 10.9 4 Sur 18 Norte 0.2 1005.3 3.2 92
2019-11-13 07:00:00 11.5 13 Norte 28 Nordeste 0.7 1004.4 2.3 85
2019-11-13 06:00:00 9.9 4 Sudoeste 9 Sudoeste 1.7 1003.3 1.9 98
2019-11-13 05:00:00 9.7 4 Noroeste 5 Norte 0.7 1002.1 1.4 98
2019-11-13 04:00:00 9.7 5 Oeste 9 Oeste 2.8 1002.1 1.2 97
2019-11-13 03:00:00 9.7 -- -- -- -- 0.2 1001.4 0 97
2019-11-13 02:00:00 9.6 4 Este 11 Este 0 1000.7 -1.2 96
2019-11-13 01:00:00 9.7 10 Este 13 Este 0.3 1000.9 -1.8 96
2019-11-13 00:00:00 9.8 5 Este 11 Nordeste 0.2 1001.4 -2 94
2019-11-12 23:00:00 10.5 8 Este 15 Este 0.1 1001.9 -2.3 89
2019-11-12 22:00:00 10.7 11 Este 17 Este 0.2 1002.7 -2 88
2019-11-12 21:00:00 11 6 Este 15 Este 0.7 1003.4 -2.1 87
2019-11-12 20:00:00 10.6 10 Este 15 Este 0.9 1004.2 -2 96
2019-11-12 19:00:00 11 7 Este 13 Nordeste 0.6 1004.7 -2.2 95
2019-11-12 18:00:00 11.7 2 Este 13 Este 0 1005.5 -2.2 89
2019-11-12 17:00:00 12.8 9 Este 13 Este 0 1006.2 -2.5 84
2019-11-12 16:00:00 14.2 0 Calma 15 Oeste 0 1006.9 -2.9 65
2019-11-12 15:00:00 14.4 9 Noroeste 21 Noroeste 0 1007.7 -3.4 65
2019-11-12 14:00:00 13.8 15 Oeste 24 Oeste 0 1008.7 -2.4 66
2019-11-12 13:00:00 13.7 12 Noroeste 26 Oeste 0 1009.8 -1.6 71
2019-11-12 12:00:00 12 10 Oeste 18 Oeste 0 1011.1 -0.5 74
2019-11-12 11:00:00 11.9 10 Oeste 15 Sudoeste 0 1011.1 -0.4 76
2019-11-12 10:00:00 10 0 Calma 9 Este 0 1011.4 -0.4 93
2019-11-12 09:00:00 9.8 8 Oeste 13 Sudoeste 0 1011.6 -0.4 89
2019-11-12 08:00:00 9.1 3 Norte 13 Noroeste 4 1011.5 -0.7 95
2019-11-12 07:00:00 9.5 9 Sudoeste 17 Sudoeste 1.8 1011.8 -1.1 90
2019-11-12 06:00:00 9.2 6 Oeste 15 Oeste 0.3 1012 -1.4 91
2019-11-12 05:00:00 8.6 4 Nordeste 8 Nordeste 1.3 1012.2 -1.3 97
2019-11-12 04:00:00 8.6 5 Nordeste 9 Nordeste 1.1 1012.9 -1.3 97
2019-11-12 03:00:00 8.3 0 Calma 8 Norte 1.8 1013.4 -1.7 97
2019-11-12 02:00:00 7.9 4 Nordeste 11 Sudeste 0 1013.5 -1.5 97
2019-11-12 01:00:00 7.7 9 Este 11 Este 0.6 1014.2 -0.6 97
2019-11-12 00:00:00 7.9 3 Este 11 Este 1 1015.1 0.3 96
2019-11-11 23:00:00 7.8 6 Este 17 Oeste 0 1015 -0.2 93
2019-11-11 22:00:00 8.2 8 Este 11 Este 0 1014.8 0.3 93
2019-11-11 21:00:00 9.3 0 Calma 17 Noroeste 0 1014.8 0.7 88
2019-11-11 20:00:00 11.1 10 Noroeste 28 Noroeste 1 1015.2 1.3 80
2019-11-11 19:00:00 11.3 6 Norte 30 Norte 0 1014.5 0.9 73
2019-11-11 18:00:00 12.1 15 Noroeste 30 Noroeste 0 1014.1 1.2 64
2019-11-11 17:00:00 12.5 20 Noroeste 42 Noroeste 0 1013.9 1.7 66
2019-11-11 16:00:00 12.9 20 Noroeste 48 Norte 0 1013.6 1.9 62
2019-11-11 15:00:00 13.3 27 Noroeste 52 Noroeste 0 1012.9 1.6 61
2019-11-11 14:00:00 13.1 27 Noroeste 50 Noroeste 0.1 1012.2 2.1 69
2019-11-11 13:00:00 13.1 30 Noroeste 52 Noroeste 0.5 1011.7 1.5 80
2019-11-11 12:00:00 9.6 5 Oeste 17 Oeste 2.9 1011.3 0.7 97
2019-11-11 11:00:00 9.5 7 Este 13 Sudeste 1.4 1010.1 -0.2 95
2019-11-11 10:00:00 9.3 5 Este 15 Este 0.3 1010.2 -0.5 92
2019-11-11 09:00:00 9.6 6 Sur 24 Sudoeste 0 1010.6 -1.2 86
2019-11-11 08:00:00 8.8 6 Este 15 Este 0 1010.3 -1.9 89
2019-11-11 07:00:00 8 4 Este 13 Este 0 1010.7 -1.8 95
2019-11-11 06:00:00 8.1 10 Sudeste 15 Este 0 1011.8 -1 95
2019-11-11 05:00:00 7.9 9 Este 11 Este 0 1012.2 -1.3 95
2019-11-11 04:00:00 8 7 Este 13 Este 0.5 1012.5 -1 95
2019-11-11 03:00:00 7.6 6 Este 13 Este 1.4 1012.8 -1.4 97
2019-11-11 02:00:00 7.2 8 Este 13 Este 0.1 1013.5 -0.2 97
2019-11-11 01:00:00 6.7 8 Sudeste 11 Este 1 1013.5 -0.2 96
2019-11-11 00:00:00 7.3 8 Este 13 Este 0.7 1014.2 0.5 96
2019-11-10 23:00:00 7.5 6 Este 22 Sudeste 1.5 1013.7 -0.1 96
2019-11-10 22:00:00 7.4 8 Este 15 Nordeste 0.1 1013.7 0.2 95
2019-11-10 21:00:00 7.6 2 Sudeste 13 Sudeste 0.5 1013.7 0.6 95
2019-11-10 20:00:00 7.6 7 Este 15 Este 0.5 1013.8 1.4 95
2019-11-10 19:00:00 7.8 5 Este 17 Este 1.3 1013.5 1.2 93
2019-11-10 18:00:00 8.3 7 Sur 21 Sur 3.2 1013.1 1.6 92
2019-11-10 17:00:00 9.3 5 Sur 15 Sur 1.7 1012.4 1.8 85
2019-11-10 16:00:00 8.8 6 Sudoeste 33 Nordeste 1.3 1012.3 1.6 88
2019-11-10 15:00:00 9.9 14 Nordeste 48 Norte 3.5 1011.5 0.2 86
2019-11-10 14:00:00 13 29 Noroeste 50 Norte 0 1010.6 -1.2 67
2019-11-10 13:00:00 11.8 25 Noroeste 41 Oeste 0.1 1010.7 -0.9 72
2019-11-10 12:00:00 8.4 8 Oeste -- -- -- 1011.3 -0.1 88
2019-11-10 11:00:00 8.6 10 Sudoeste 21 Norte 2.6 1011.8 0.6 92
2019-11-10 10:00:00 8.5 23 Noroeste 59 Noroeste 1.1 1011.6 1 89
2019-11-10 09:00:00 7.6 7 Sudoeste 26 Norte 2.2 1011.4 0.8 94
2019-11-10 08:00:00 8.3 22 Noroeste 45 Norte 2.8 1011.2 0.4 87
2019-11-10 07:00:00 8.7 11 Oeste 28 Oeste 0.4 1010.6 -1.2 85
2019-11-10 06:00:00 7.3 6 Sur 17 Norte 1.2 1010.6 -1.8 92
2019-11-10 05:00:00 7.1 5 Oeste 13 Noroeste 2.8 1010.8 -1.3 90
2019-11-10 04:00:00 7.7 9 Sudoeste 48 Oeste 2 1011.8 -0.2 86
2019-11-10 03:00:00 8.2 17 Oeste 39 Oeste 1.3 1012.4 0.8 87
2019-11-10 02:00:00 8 10 Oeste 41 Oeste 1.9 1012.1 0.6 85
2019-11-10 01:00:00 8.8 8 Oeste 21 Oeste 1.3 1012 0.4 88
2019-11-10 00:00:00 9.6 6 Oeste 21 Oeste 0 1011.6 -0.2 76
2019-11-09 23:00:00 9.6 10 Oeste 18 Norte 0 1011.5 0.4 88
2019-11-09 22:00:00 9.4 12 Oeste 24 Oeste 1.1 1011.6 1.2 88
2019-11-09 21:00:00 9.7 24 Oeste 42 Oeste 5.3 1011.8 2.5 86
2019-11-09 20:00:00 10.1 16 Oeste 59 Noroeste 4.4 1011.1 1.7 90
2019-11-09 19:00:00 10.8 24 Oeste 48 Oeste 3.7 1010.4 1 88
2019-11-09 18:00:00 12.5 17 Oeste 50 Oeste 0.6 1009.3 0.4 83
2019-11-09 17:00:00 14.1 37 Oeste 54 Noroeste 0 1009.4 -0.3 72
2019-11-09 16:00:00 14.2 38 Oeste 63 Oeste 1.9 1009.4 -1.4 77
2019-11-09 15:00:00 11.5 16 Sudoeste 28 Sudoeste 0.4 1008.9 -3 81
2019-11-09 14:00:00 10.9 3 Sur 21 Sudoeste 1.4 1009.7 -2.8 84
2019-11-09 13:00:00 11.8 10 Sur 28 Sudoeste 0 1010.8 -2.1 72
2019-11-09 12:00:00 11 10 Sur 33 Sudoeste 0.2 1011.9 -1.6 78
2019-11-09 11:00:00 11.8 9 Sudoeste 22 Sudoeste 0 1012.5 -1.3 76
2019-11-09 10:00:00 10.6 7 Este 11 Este 0 1012.9 -1.3 88
2019-11-09 09:00:00 10 6 Este 11 Oeste 0 1013.5 -0.7 92
2019-11-09 08:00:00 10.1 7 Sudoeste 15 Oeste 0.2 1013.8 -0.2 86
2019-11-09 07:00:00 9.9 8 Sudoeste 13 Sudoeste 1.9 1014.2 0 93
2019-11-09 06:00:00 9.5 0 Calma 9 Nordeste 0.7 1014.2 0.2 96
2019-11-09 05:00:00 9.7 3 Sur 18 Oeste 1.8 1014 -0.1 95
2019-11-09 04:00:00 9.8 12 Oeste 24 Sudoeste 1.1 1014.2 -0.1 93
2019-11-09 03:00:00 9.8 11 Oeste 30 Oeste 0.1 1014 -0.4 90
2019-11-09 02:00:00 9.6 6 Noroeste 21 Oeste 0.6 1014.1 0 90
2019-11-09 01:00:00 9.8 7 Oeste 28 Oeste 2.1 1014.3 0.6 88
2019-11-09 00:00:00 10.2 11 Oeste 37 Oeste 0.7 1014.4 1.7 80
2019-11-08 23:00:00 9.8 24 Oeste 54 Noroeste 3.3 1014.1 1.8 85
2019-11-08 22:00:00 10.7 24 Noroeste 41 Noroeste 1.5 1013.7 2 85
2019-11-08 21:00:00 9.8 26 Oeste 45 Oeste 1.6 1012.7 2.4 87
2019-11-08 20:00:00 10 18 Oeste 50 Oeste 1.6 1012.3 2.6 90
2019-11-08 19:00:00 9.4 23 Noroeste 59 Noroeste 13.5 1011.7 3.2 92
2019-11-08 18:00:00 10.5 32 Oeste 67 Oeste 1.2 1010.3 3.2 90
2019-11-08 17:00:00 11 48 Oeste 67 Noroeste 0.5 1009.7 3 86
2019-11-08 16:00:00 11.4 33 Oeste 58 Noroeste 3.5 1008.5 1.9 84
2019-11-08 15:00:00 11.9 41 Oeste 67 Noroeste 0.1 1007.1 0.8 80
2019-11-08 14:00:00 10.8 42 Oeste 72 Oeste 11.8 1006.7 1 95
2019-11-08 13:00:00 11.3 41 Noroeste 78 Noroeste 2.2 1006.6 0.5 79
2019-11-08 12:00:00 10.1 25 Oeste 58 Oeste 0.8 1006.3 1 81
2019-11-08 11:00:00 10 21 Oeste 50 Oeste 0.5 1005.7 1.1 80
2019-11-08 10:00:00 9.5 27 Oeste 50 Oeste 1.4 1006.1 2.1 78
2019-11-08 09:00:00 10.2 20 Oeste 45 Oeste 0.2 1005.3 0.9 75
2019-11-08 08:00:00 9.9 21 Oeste 41 Oeste 0.3 1004.6 0.5 74
2019-11-08 07:00:00 8.5 13 Sudoeste 28 Sudoeste 0.2 1004 0.1 80
2019-11-08 06:00:00 8.2 16 Sudoeste 30 Oeste 0.7 1004.4 0.7 80
2019-11-08 05:00:00 7.9 13 Sudoeste 35 Sudoeste 0.8 1004.1 0.5 81
2019-11-08 04:00:00 8.8 17 Oeste 33 Sudoeste 0.3 1003.9 0.1 72
2019-11-08 03:00:00 8.5 14 Sudoeste 30 Sudoeste 0 1003.7 -0.1 73
2019-11-08 02:00:00 8.8 15 Oeste 35 Oeste 0.8 1003.6 -0.7 73
2019-11-08 01:00:00 9.7 10 Oeste 21 Sudoeste 0 1003.8 -0.6 59
2019-11-08 00:00:00 10 11 Sudoeste 22 Sudoeste 0 1003.8 -0.8 56